Time;durP1;ratioP1;P1;durP2;ratioP2;P2;SDS_P1;SDS_P2;PMS_P1;PMS_P2;Temp;Humidity;BMP_temperature;BMP_pressure;BME280_temperature;BME280_humidity;BME280_pressure;Samples;Min_cycle;Max_cycle;Signal;HPM_P1;HPM_P2
2022/10/09 00:01:12;;;;;;;12.77;9.32;;;;;;;13.03;66.11;95030.66;4161577;28;20045;-56
2022/10/09 00:03:15;;;;;;;13.75;9.18;;;;;;;13.05;65.68;95024.25;4163093;28;20052;-57
2022/10/09 00:05:17;;;;;;;12.38;8.77;;;;;;;13.06;65.91;95027.72;4160144;28;20060;-57
2022/10/09 00:07:19;;;;;;;13.00;9.05;;;;;;;13.09;65.90;95015.03;4162728;28;20080;-58
2022/10/09 00:09:21;;;;;;;12.38;8.25;;;;;;;13.13;65.46;95017.34;4163145;28;20144;-56
2022/10/09 00:11:25;;;;;;;16.02;9.00;;;;;;;13.13;65.72;95023.41;4162635;28;20667;-57
2022/10/09 00:13:26;;;;;;;;;;;;;;;13.17;65.76;95011.56;4163395;28;20088;-57
2022/10/09 00:15:28;;;;;;;13.75;8.85;;;;;;;13.18;65.67;95022.91;4149556;28;20015;-56
2022/10/09 00:17:29;;;;;;;12.05;8.20;;;;;;;13.15;65.64;95018.81;4162929;28;20081;-56
2022/10/09 00:19:31;;;;;;;13.43;8.73;;;;;;;13.11;65.85;95020.13;4161160;28;20055;-55
2022/10/09 00:21:33;;;;;;;11.27;8.93;;;;;;;13.10;65.46;95011.44;4162509;28;20384;-57
2022/10/09 00:23:35;;;;;;;14.07;9.35;;;;;;;13.11;65.79;95013.06;4162379;28;20056;-58
2022/10/09 00:25:37;;;;;;;15.23;8.95;;;;;;;13.14;65.90;95009.25;4160530;28;20772;-57
2022/10/09 00:27:39;;;;;;;12.80;8.80;;;;;;;13.17;65.57;95008.13;4162521;28;20057;-55
2022/10/09 00:29:40;;;;;;;14.38;8.82;;;;;;;13.18;65.56;95007.13;4162931;28;20132;-56
2022/10/09 00:31:42;;;;;;;12.20;8.18;;;;;;;13.20;65.52;95010.41;4158651;28;20045;-55
2022/10/09 00:33:44;;;;;;;12.85;8.57;;;;;;;13.22;65.52;95000.56;4162120;28;20581;-57
2022/10/09 00:35:46;;;;;;;11.23;9.32;;;;;;;13.22;64.97;95003.19;4162190;28;20068;-63
2022/10/09 00:37:48;;;;;;;14.38;8.27;;;;;;;13.18;65.43;94999.25;4162641;28;20795;-60
2022/10/09 00:39:49;;;;;;;13.38;8.98;;;;;;;13.17;65.06;95001.06;4161404;28;20490;-62
2022/10/09 00:41:51;;;;;;;11.45;8.18;;;;;;;13.18;65.68;94997.44;4161040;28;20461;-63
2022/10/09 00:43:54;;;;;;;11.52;8.38;;;;;;;13.19;65.52;94988.56;4161221;28;20144;-56
2022/10/09 00:45:56;;;;;;;14.02;8.65;;;;;;;13.20;65.47;94992.81;4160972;28;20054;-56
2022/10/09 00:48:03;;;;;;;14.45;8.30;;;;;;;13.22;65.21;94992.66;4162484;28;20501;-57
2022/10/09 00:50:12;;;;;;;11.80;8.52;;;;;;;13.22;65.14;94982.94;4160883;28;20103;-56
2022/10/09 00:52:14;;;;;;;11.32;8.00;;;;;;;13.22;64.90;94987.41;4160977;28;20077;-58
2022/10/09 00:54:17;;;;;;;11.68;8.63;;;;;;;13.20;64.86;94981.47;4159976;28;20071;-56
2022/10/09 00:56:19;;;;;;;15.88;7.55;;;;;;;13.19;65.17;94983.28;4158380;28;20051;-56
2022/10/09 00:58:21;;;;;;;12.40;8.23;;;;;;;13.13;65.57;94983.97;4158013;28;20136;-61
2022/10/09 01:00:22;;;;;;;11.52;8.30;;;;;;;13.04;65.39;94982.34;4158450;28;20144;-59
2022/10/09 01:02:24;;;;;;;10.95;7.75;;;;;;;12.82;65.76;94976.78;4162017;28;20053;-62
2022/10/09 01:04:26;;;;;;;11.65;8.45;;;;;;;12.61;66.68;94979.91;4162210;28;20049;-63
2022/10/09 01:07:00;;;;;;;13.70;7.60;;;;;;;12.37;67.26;94985.16;4161922;28;20144;-63
2022/10/09 01:09:16;;;;;;;13.73;8.90;;;;;;;11.98;68.29;94976.09;4160338;28;20125;-61
2022/10/09 01:11:41;;;;;;;11.10;8.15;;;;;;;11.78;69.70;94977.28;4161954;28;20625;-63
2022/10/09 01:14:03;;;;;;;11.90;9.02;;;;;;;11.69;69.73;94984.31;4162183;28;20071;-62
2022/10/09 01:16:18;;;;;;;12.68;8.82;;;;;;;11.70;69.87;94980.69;4157303;28;20100;-61
2022/10/09 01:19:09;;;;;;;12.40;8.35;;;;;;;11.79;70.08;94985.03;4160627;28;20103;-62
2022/10/09 01:21:18;;;;;;;11.93;7.90;;;;;;;11.97;69.96;94979.66;4152516;28;20066;-64
2022/10/09 01:23:25;;;;;;;12.75;7.05;;;;;;;12.12;69.33;94986.94;4159706;28;20124;-64
2022/10/09 01:25:35;;;;;;;9.38;7.47;;;;;;;12.28;68.76;94989.56;4157079;28;20085;-64
2022/10/09 01:27:37;;;;;;;10.80;7.32;;;;;;;12.36;68.26;94981.69;4159859;28;20053;-62
2022/10/09 01:29:48;;;;;;;11.40;8.07;;;;;;;12.43;67.86;94987.97;4161734;28;20146;-62
2022/10/09 01:31:51;;;;;;;11.90;8.95;;;;;;;12.46;67.70;94985.00;4157163;28;20544;-63
2022/10/09 01:33:52;;;;;;;14.50;8.57;;;;;;;12.52;67.43;94980.06;4147218;28;20046;-56
2022/10/09 01:35:54;;;;;;;13.13;8.40;;;;;;;12.57;66.77;94983.84;4161603;28;20049;-60
2022/10/09 01:37:57;;;;;;;17.77;9.73;;;;;;;12.62;66.78;94980.72;4161810;28;20136;-57
2022/10/09 01:39:58;;;;;;;12.77;8.82;;;;;;;12.66;66.70;94976.78;4156983;28;20129;-58
2022/10/09 01:42:01;;;;;;;11.30;7.50;;;;;;;12.72;66.72;94983.19;4159171;28;20085;-58
2022/10/09 01:44:02;;;;;;;12.15;7.95;;;;;;;12.72;66.43;94981.38;4160506;28;20518;-58
2022/10/09 01:46:27;;;;;;;13.15;8.93;;;;;;;12.73;66.34;94979.56;4160116;28;20128;-58
2022/10/09 01:48:28;;;;;;;;;;;;;;;12.75;66.51;94975.78;4160778;28;20064;-57
2022/10/09 01:50:33;;;;;;;8.20;6.68;;;;;;;12.75;66.22;94980.22;4160058;28;20015;-56
2022/10/09 01:52:50;;;;;;;9.40;7.35;;;;;;;12.77;66.60;94986.16;4161699;28;20049;-59
2022/10/09 01:55:08;;;;;;;9.93;7.35;;;;;;;12.73;66.58;94982.19;4163293;28;20129;-55
2022/10/09 01:57:12;;;;;;;13.30;7.85;;;;;;;12.70;66.47;94984.19;4164244;28;20433;-55
2022/10/09 01:59:16;;;;;;;13.85;7.18;;;;;;;12.68;66.30;94983.50;4163417;28;20057;-55
2022/10/09 02:01:25;;;;;;;11.20;7.25;;;;;;;12.68;66.42;94982.69;4161997;28;20047;-56
2022/10/09 02:03:28;;;;;;;12.20;7.03;;;;;;;12.65;66.68;94989.13;4164368;28;20548;-62
2022/10/09 02:05:31;;;;;;;11.43;7.67;;;;;;;12.60;66.64;94988.78;4163278;28;20053;-63
2022/10/09 02:07:32;;;;;;;8.45;7.30;;;;;;;12.61;66.61;94992.25;4163595;28;20506;-63
2022/10/09 02:09:36;;;;;;;10.57;6.95;;;;;;;12.63;66.65;94993.72;4163130;28;20081;-63
2022/10/09 02:11:41;;;;;;;9.82;7.30;;;;;;;12.56;67.01;95003.25;4163192;28;20529;-63
2022/10/09 02:13:45;;;;;;;9.63;7.00;;;;;;;12.54;67.19;94997.34;4164805;28;20509;-62
2022/10/09 02:15:50;;;;;;;11.40;6.90;;;;;;;12.49;66.77;94999.63;4163213;28;20052;-62
2022/10/09 02:17:53;;;;;;;10.77;6.88;;;;;;;12.38;67.51;94998.13;4163206;28;20383;-61
2022/10/09 02:20:05;;;;;;;8.80;6.90;;;;;;;12.37;67.05;95003.53;4163466;28;20045;-63
2022/10/09 02:22:17;;;;;;;11.20;7.13;;;;;;;12.34;67.26;95003.88;4163675;28;20077;-63
2022/10/09 02:24:20;;;;;;;10.05;7.10;;;;;;;12.31;67.23;95012.91;4163098;28;20057;-58
2022/10/09 02:26:22;;;;;;;13.45;7.90;;;;;;;12.30;67.69;95008.63;4162202;28;20115;-63
2022/10/09 02:28:24;;;;;;;11.88;7.18;;;;;;;12.23;67.60;95012.88;4162289;28;20468;-63
2022/10/09 02:30:29;;;;;;;9.02;7.28;;;;;;;12.19;68.22;95009.75;4162478;28;20053;-63
2022/10/09 02:32:30;;;;;;;10.27;7.40;;;;;;;12.25;67.88;95008.28;4162991;28;20077;-63
2022/10/09 02:34:32;;;;;;;9.80;7.13;;;;;;;12.24;67.75;95019.78;4164507;28;20065;-63
2022/10/09 02:36:34;;;;;;;9.45;6.88;;;;;;;12.20;67.39;95011.41;4163012;28;20526;-63
2022/10/09 02:38:36;;;;;;;11.02;6.68;;;;;;;12.15;67.91;95005.78;4164613;28;20060;-63
2022/10/09 02:40:38;;;;;;;11.80;6.97;;;;;;;12.13;67.87;95007.78;4163644;28;20124;-62
2022/10/09 02:42:39;;;;;;;10.02;6.68;;;;;;;12.10;67.94;95010.72;4164066;28;20383;-63
2022/10/09 02:44:41;;;;;;;14.20;7.03;;;;;;;12.06;67.97;95004.16;4164375;28;20144;-63
2022/10/09 02:46:43;;;;;;;13.30;7.75;;;;;;;12.07;68.05;95006.63;4149987;28;20182;-64
2022/10/09 02:48:44;;;;;;;11.73;6.47;;;;;;;12.04;68.04;95011.34;4151833;28;20061;-63
2022/10/09 02:50:46;;;;;;;13.90;6.93;;;;;;;12.06;68.27;95010.22;4164302;28;20102;-62
2022/10/09 02:52:48;;;;;;;9.45;7.55;;;;;;;12.12;68.15;95006.13;4164053;28;20049;-63
2022/10/09 02:54:50;;;;;;;9.35;6.95;;;;;;;12.20;68.07;95011.41;4164193;28;20498;-61
2022/10/09 02:56:52;;;;;;;11.45;8.07;;;;;;;12.23;67.72;95008.44;4163625;28;20715;-62
2022/10/09 02:58:53;;;;;;;15.95;7.70;;;;;;;12.29;67.56;95012.25;4162623;28;20053;-62
2022/10/09 03:00:55;;;;;;;8.30;7.00;;;;;;;12.35;67.04;95013.41;4162259;28;20148;-62
2022/10/09 03:02:57;;;;;;;9.57;6.90;;;;;;;12.35;67.08;95011.59;4160471;28;20241;-61
2022/10/09 03:04:59;;;;;;;11.73;7.35;;;;;;;12.38;66.91;95007.81;4149306;28;20070;-61
2022/10/09 03:07:00;;;;;;;9.38;7.50;;;;;;;12.39;66.88;95012.06;4163205;28;20550;-62
2022/10/09 03:09:03;;;;;;;8.15;6.60;;;;;;;12.40;66.69;95013.75;4162536;28;20049;-62
2022/10/09 03:11:05;;;;;;;12.35;7.20;;;;;;;12.42;66.77;95011.78;4149792;28;20045;-63
2022/10/09 03:13:06;;;;;;;8.80;6.95;;;;;;;12.42;66.78;95020.47;4163286;28;20132;-63
2022/10/09 03:15:09;;;;;;;9.95;6.80;;;;;;;12.41;66.93;95015.38;4163160;28;20422;-62
2022/10/09 03:17:10;;;;;;;8.93;7.18;;;;;;;12.40;66.87;95021.63;4163316;28;20107;-62
2022/10/09 03:19:12;;;;;;;11.10;7.07;;;;;;;12.36;66.94;95021.09;4163768;28;20494;-60
2022/10/09 03:21:16;;;;;;;11.35;7.13;;;;;;;12.35;67.11;95023.91;4163756;28;20462;-59
2022/10/09 03:23:17;;;;;;;8.63;7.00;;;;;;;12.35;67.26;95023.91;4162609;28;20045;-61
2022/10/09 03:25:19;;;;;;;10.50;7.15;;;;;;;12.33;67.05;95029.31;4160503;28;20138;-62
2022/10/09 03:27:21;;;;;;;9.98;7.05;;;;;;;12.35;67.00;95024.72;4160265;28;20181;-60
2022/10/09 03:29:22;;;;;;;11.63;8.18;;;;;;;12.35;67.26;95030.00;4159309;28;20506;-61
2022/10/09 03:31:25;;;;;;;12.82;7.88;;;;;;;12.34;67.28;95024.88;4161618;28;20115;-61
2022/10/09 03:33:47;;;;;;;11.52;7.90;;;;;;;12.36;67.24;95036.06;4163392;28;20084;-62
2022/10/09 03:35:49;;;;;;;11.95;8.07;;;;;;;12.31;67.00;95031.28;4163843;28;20140;-61
2022/10/09 03:37:50;;;;;;;10.60;7.35;;;;;;;12.29;66.95;95033.25;4161902;28;20089;-61
2022/10/09 03:39:52;;;;;;;12.85;8.02;;;;;;;12.20;67.23;95035.03;4163510;28;20060;-60
2022/10/09 03:41:54;;;;;;;13.00;8.10;;;;;;;12.05;67.73;95032.22;4163242;28;20502;-61
2022/10/09 03:43:55;;;;;;;12.93;7.68;;;;;;;11.92;68.39;95031.84;4163599;28;20056;-64
2022/10/09 03:45:57;;;;;;;17.17;8.68;;;;;;;11.80;68.62;95039.16;4161804;28;20060;-59
2022/10/09 03:48:01;;;;;;;9.68;7.38;;;;;;;11.71;69.22;95034.03;4163262;28;20054;-62
2022/10/09 03:50:04;;;;;;;13.40;8.07;;;;;;;11.71;68.80;95034.84;4150365;28;20128;-62
2022/10/09 03:52:05;;;;;;;10.98;8.60;;;;;;;11.67;68.94;95038.75;4163237;28;20125;-62
2022/10/09 03:54:07;;;;;;;11.68;8.27;;;;;;;11.66;69.20;95029.25;4163137;28;20545;-61
2022/10/09 03:56:09;;;;;;;11.85;8.70;;;;;;;11.65;69.39;95033.66;4162135;28;20156;-63
2022/10/09 03:58:10;;;;;;;15.00;9.23;;;;;;;11.69;69.24;95031.56;4150294;28;20128;-59
2022/10/09 04:00:13;;;;;;;9.63;8.20;;;;;;;11.67;68.97;95028.25;4161973;28;20490;-60
2022/10/09 04:02:14;;;;;;;11.85;8.50;;;;;;;11.65;69.30;95036.28;4162952;28;20080;-61
2022/10/09 04:04:16;;;;;;;19.02;9.10;;;;;;;11.62;69.50;95031.38;4155784;28;20050;-63
2022/10/09 04:06:18;;;;;;;11.13;8.63;;;;;;;11.63;69.47;95026.94;4163383;28;20435;-61
2022/10/09 04:08:19;;;;;;;15.80;8.68;;;;;;;11.73;69.34;95032.06;4163205;28;20053;-62
2022/10/09 04:10:21;;;;;;;14.55;9.27;;;;;;;11.79;69.16;95034.88;4162863;28;20080;-62
2022/10/09 04:12:23;;;;;;;15.63;9.70;;;;;;;11.81;68.85;95034.75;4162931;28;20133;-64
2022/10/09 04:14:24;;;;;;;14.75;9.25;;;;;;;11.84;68.61;95037.84;4162856;28;20077;-57
2022/10/09 04:16:26;;;;;;;18.38;11.60;;;;;;;11.87;68.61;95039.31;4160089;28;20055;-58
2022/10/09 04:18:28;;;;;;;15.65;9.80;;;;;;;11.89;68.73;95042.66;4163097;28;20092;-59
2022/10/09 04:20:29;;;;;;;12.15;9.10;;;;;;;11.86;68.61;95033.25;4162315;28;20073;-58
2022/10/09 04:22:31;;;;;;;16.55;9.68;;;;;;;11.85;68.53;95031.63;4162834;28;20091;-58
2022/10/09 04:24:33;;;;;;;14.23;9.68;;;;;;;11.83;68.83;95035.38;4163075;28;20083;-61
2022/10/09 04:26:34;;;;;;;14.82;9.35;;;;;;;11.86;68.47;95041.13;4162332;28;20137;-60
2022/10/09 04:28:36;;;;;;;16.00;8.65;;;;;;;11.82;68.22;95039.81;4161663;28;20491;-55
2022/10/09 04:30:38;;;;;;;11.57;8.88;;;;;;;11.83;68.40;95043.25;4159990;28;20094;-57
2022/10/09 04:32:40;;;;;;;14.52;9.30;;;;;;;11.81;68.31;95048.69;4162637;28;20107;-56
2022/10/09 04:34:41;;;;;;;10.93;8.55;;;;;;;11.79;68.13;95042.75;4162641;28;20053;-56
2022/10/09 04:36:43;;;;;;;14.30;8.70;;;;;;;11.77;68.41;95043.91;4161999;28;20059;-56
2022/10/09 04:38:44;;;;;;;13.70;9.18;;;;;;;11.75;68.29;95045.88;4162663;28;20076;-57
2022/10/09 04:41:01;;;;;;;16.92;8.43;;;;;;;11.76;69.16;95048.31;4162148;28;20081;-58
2022/10/09 04:43:03;;;;;;;13.80;8.60;;;;;;;11.79;68.52;95052.44;4162403;28;20569;-56
2022/10/09 04:45:05;;;;;;;15.38;8.82;;;;;;;11.78;68.59;95046.34;4161698;28;20049;-56
2022/10/09 04:47:07;;;;;;;18.45;9.38;;;;;;;11.79;68.36;95053.25;4161943;28;20056;-58
2022/10/09 04:49:12;;;;;;;14.10;9.00;;;;;;;11.80;68.67;95052.28;4162519;28;20045;-57
2022/10/09 04:51:15;;;;;;;11.88;8.98;;;;;;;11.82;68.57;95058.19;4162325;28;20399;-58
2022/10/09 04:53:17;;;;;;;13.27;9.27;;;;;;;11.80;68.32;95061.94;4160377;28;20049;-57
2022/10/09 04:55:19;;;;;;;13.02;8.48;;;;;;;11.82;68.52;95058.19;4162001;28;20113;-56
2022/10/09 04:57:21;;;;;;;11.63;9.38;;;;;;;11.80;68.42;95056.69;4162341;28;20080;-55
2022/10/09 04:59:22;;;;;;;11.70;8.98;;;;;;;11.82;68.36;95055.56;4162204;28;20144;-58
2022/10/09 05:01:26;;;;;;;12.30;8.38;;;;;;;11.81;68.49;95064.44;4160560;28;20049;-56
2022/10/09 05:03:28;;;;;;;9.85;8.73;;;;;;;11.81;68.46;95055.75;4162413;28;20111;-56
2022/10/09 05:05:31;;;;;;;11.23;9.05;;;;;;;11.76;68.75;95058.81;4162309;28;20077;-58
2022/10/09 05:07:32;;;;;;;12.48;9.27;;;;;;;11.76;68.85;95061.44;4162193;28;20053;-58
2022/10/09 05:09:34;;;;;;;14.82;9.68;;;;;;;11.78;68.72;95059.47;4162231;28;20053;-59
2022/10/09 05:11:36;;;;;;;16.17;9.13;;;;;;;11.78;68.94;95069.16;4158420;28;20137;-57
2022/10/09 05:13:46;;;;;;;16.55;9.40;;;;;;;11.79;68.85;95063.75;4162244;28;20049;-59
2022/10/09 05:15:47;;;;;;;15.75;9.50;;;;;;;11.78;68.98;95066.53;4158921;28;20053;-59
2022/10/09 05:17:49;;;;;;;13.20;9.48;;;;;;;11.78;68.88;95069.97;4161643;28;20331;-59
2022/10/09 05:19:50;;;;;;;19.15;10.13;;;;;;;11.80;68.76;95075.88;4161962;28;20109;-58
2022/10/09 05:21:52;;;;;;;11.27;9.68;;;;;;;11.83;68.70;95080.84;4161169;28;20655;-57
2022/10/09 05:23:54;;;;;;;14.68;9.95;;;;;;;11.86;68.79;95080.53;4157078;28;20228;-57
2022/10/09 05:25:58;;;;;;;13.98;9.80;;;;;;;11.92;68.66;95075.66;4161172;28;20481;-57
2022/10/09 05:27:59;;;;;;;13.60;10.05;;;;;;;11.96;68.49;95075.19;4161792;28;20105;-56
2022/10/09 05:30:01;;;;;;;13.32;10.70;;;;;;;12.05;68.53;95078.66;4158217;28;20092;-58
2022/10/09 05:32:03;;;;;;;15.38;10.73;;;;;;;12.11;68.32;95083.28;4157523;28;20132;-66
2022/10/09 05:34:05;;;;;;;12.68;10.20;;;;;;;12.20;68.00;95089.38;4161682;28;20053;-64
2022/10/09 05:36:06;;;;;;;13.05;10.45;;;;;;;12.19;67.53;95091.16;4161879;28;20069;-62
2022/10/09 05:38:08;;;;;;;14.20;10.27;;;;;;;12.30;68.00;95084.81;4161999;28;20132;-65
2022/10/09 05:40:10;;;;;;;15.15;10.50;;;;;;;12.37;67.71;95084.97;4161227;28;20049;-62
2022/10/09 05:42:12;;;;;;;15.02;10.73;;;;;;;12.45;67.27;95091.09;4161769;28;20136;-63
2022/10/09 05:44:13;;;;;;;14.50;9.93;;;;;;;12.56;66.93;95086.50;4162035;28;20046;-64
2022/10/09 05:46:18;;;;;;;14.52;9.38;;;;;;;12.62;66.86;95085.84;4160339;28;20053;-63
2022/10/09 05:48:21;;;;;;;17.23;9.48;;;;;;;12.72;66.52;95083.91;4161609;28;20107;-64
2022/10/09 05:50:22;;;;;;;15.77;10.75;;;;;;;12.83;66.46;95090.66;4160566;28;20053;-64
2022/10/09 05:52:24;;;;;;;16.30;10.10;;;;;;;12.92;65.89;95092.28;4161599;28;20085;-62
2022/10/09 05:54:26;;;;;;;14.88;9.85;;;;;;;13.01;65.91;95095.75;4161901;28;20132;-62
2022/10/09 05:56:30;;;;;;;10.65;9.25;;;;;;;13.10;65.85;95092.16;4161335;28;20045;-65
2022/10/09 05:58:31;;;;;;;13.95;10.70;;;;;;;13.22;65.94;95103.16;4160618;28;20145;-63
2022/10/09 06:00:33;;;;;;;13.80;9.30;;;;;;;13.36;65.30;95104.31;4160201;28;20073;-61
2022/10/09 06:02:35;;;;;;;15.63;10.40;;;;;;;13.45;65.02;95095.44;4161752;28;20081;-63
2022/10/09 06:04:36;;;;;;;14.50;9.77;;;;;;;13.51;64.48;95108.75;4154033;28;20631;-62
2022/10/09 06:06:39;;;;;;;16.67;10.27;;;;;;;13.43;64.26;95113.19;4161700;28;20127;-64
2022/10/09 06:08:41;;;;;;;18.50;10.13;;;;;;;13.49;64.72;95116.00;4161643;28;20169;-64
2022/10/09 06:10:42;;;;;;;13.27;9.93;;;;;;;13.58;63.93;95118.63;4161221;28;20053;-64
2022/10/09 06:12:44;;;;;;;15.13;10.05;;;;;;;13.61;63.64;95113.00;4161766;28;20148;-63
2022/10/09 06:14:46;;;;;;;14.07;10.57;;;;;;;13.50;64.06;95122.88;4161626;28;20037;-63
2022/10/09 06:16:47;;;;;;;14.75;10.70;;;;;;;13.42;64.67;95115.03;4159607;28;20487;-63
2022/10/09 06:18:49;;;;;;;15.77;10.80;;;;;;;13.45;64.10;95127.03;4161358;28;20075;-61
2022/10/09 06:20:55;;;;;;;22.70;11.27;;;;;;;13.50;64.90;95122.88;4161279;28;20057;-63
2022/10/09 06:22:57;;;;;;;16.65;10.70;;;;;;;13.62;64.20;95125.19;4161898;28;20069;-63
2022/10/09 06:24:58;;;;;;;15.88;11.07;;;;;;;13.71;64.27;95126.81;4161683;28;20071;-62
2022/10/09 06:27:00;;;;;;;13.82;10.77;;;;;;;13.78;63.70;95132.22;4160908;28;20051;-61
2022/10/09 06:29:02;;;;;;;17.85;10.32;;;;;;;13.77;63.84;95134.03;4161645;28;20041;-62
2022/10/09 06:31:08;;;;;;;15.43;11.27;;;;;;;13.70;63.62;95135.69;4156488;28;20081;-68
2022/10/09 06:33:09;;;;;;;14.43;10.73;;;;;;;13.63;64.23;95139.97;4160175;28;20096;-65
2022/10/09 06:35:11;;;;;;;16.42;11.13;;;;;;;13.67;64.47;95138.66;4160482;28;20053;-65
2022/10/09 06:37:12;;;;;;;16.80;11.15;;;;;;;13.56;64.38;95142.47;4154905;28;20069;-65
2022/10/09 06:39:14;;;;;;;15.65;11.23;;;;;;;13.59;64.53;95138.66;4161610;28;20137;-64
2022/10/09 06:41:21;;;;;;;14.85;11.73;;;;;;;13.40;65.44;95143.31;4162695;28;20132;-64
2022/10/09 06:43:23;;;;;;;14.23;11.10;;;;;;;13.48;64.92;95142.47;4163988;28;20070;-66
2022/10/09 06:45:24;;;;;;;18.20;11.70;;;;;;;13.53;64.59;95148.06;4162933;28;20084;-66
2022/10/09 06:47:26;;;;;;;18.05;12.18;;;;;;;13.50;64.46;95149.19;4164364;28;20140;-65
2022/10/09 06:49:28;;;;;;;22.20;11.88;;;;;;;13.47;64.35;95156.63;4164452;28;20081;-65
2022/10/09 06:51:30;;;;;;;20.08;12.07;;;;;;;13.28;65.24;95150.69;4162623;28;20055;-66
2022/10/09 06:53:36;;;;;;;17.20;12.25;;;;;;;13.18;65.61;95154.44;4164009;28;20076;-65
2022/10/09 06:55:37;;;;;;;19.63;12.27;;;;;;;13.22;65.57;95156.59;4163721;28;20156;-64
2022/10/09 06:57:39;;;;;;;20.15;13.27;;;;;;;13.34;65.46;95151.03;4164637;28;20144;-63
2022/10/09 06:59:41;;;;;;;17.50;12.65;;;;;;;13.56;65.14;95152.19;4164008;28;20045;-66
2022/10/09 07:01:42;;;;;;;17.23;12.70;;;;;;;13.48;64.42;95148.53;4157854;28;20049;-62
2022/10/09 07:03:47;;;;;;;18.10;13.15;;;;;;;13.58;64.67;95143.13;4157823;28;20050;-63
2022/10/09 07:05:48;;;;;;;22.00;13.40;;;;;;;13.61;64.28;95148.03;4160531;28;20073;-66
2022/10/09 07:07:50;;;;;;;19.10;12.48;;;;;;;13.55;63.96;95147.88;4162708;28;20668;-66
2022/10/09 07:09:52;;;;;;;16.48;12.23;;;;;;;13.53;64.68;95153.34;4164453;28;20045;-63
2022/10/09 07:11:54;;;;;;;17.17;12.30;;;;;;;13.62;64.30;95148.88;4163722;28;20077;-66
2022/10/09 07:13:57;;;;;;;21.27;13.02;;;;;;;13.75;64.25;95141.28;4163754;28;20045;-64
2022/10/09 07:15:59;;;;;;;19.00;12.50;;;;;;;13.86;64.33;95148.81;4162324;28;20058;-63
2022/10/09 07:18:05;;;;;;;18.73;12.23;;;;;;;14.07;63.38;95150.09;4164255;28;20417;-63
2022/10/09 07:20:07;;;;;;;19.70;12.80;;;;;;;14.22;63.30;95153.66;4163716;28;20069;-65
2022/10/09 07:22:10;;;;;;;19.85;13.30;;;;;;;14.11;62.81;95161.91;4163642;28;20063;-64
2022/10/09 07:24:12;;;;;;;17.10;12.20;;;;;;;14.06;62.78;95154.53;4163706;28;20045;-64
2022/10/09 07:26:18;;;;;;;16.98;10.68;;;;;;;13.67;64.11;95157.09;4163513;28;20414;-64
2022/10/09 07:28:19;;;;;;;18.77;12.50;;;;;;;13.74;64.47;95163.31;4163290;28;20601;-63
2022/10/09 07:30:21;;;;;;;22.90;12.95;;;;;;;13.98;63.75;95161.63;4162082;28;20901;-62
2022/10/09 07:32:23;;;;;;;14.25;11.38;;;;;;;14.24;63.27;95171.94;4161100;28;20512;-65
2022/10/09 07:34:25;;;;;;;16.92;11.98;;;;;;;14.51;62.40;95168.03;4161310;28;20456;-64
2022/10/09 07:36:26;;;;;;;23.10;14.05;;;;;;;14.59;62.10;95159.31;4163555;28;20041;-64
2022/10/09 07:38:28;;;;;;;22.08;13.80;;;;;;;14.78;61.78;95158.88;4163603;28;20049;-66
2022/10/09 07:40:33;;;;;;;22.95;14.48;;;;;;;14.94;61.49;95164.03;4163060;28;20603;-62
2022/10/09 07:42:34;;;;;;;18.88;14.23;;;;;;;15.19;61.03;95163.91;4163549;28;20645;-63
2022/10/09 07:44:36;;;;;;;26.70;14.60;;;;;;;15.27;60.23;95169.13;4158500;28;20053;-63
2022/10/09 07:46:38;;;;;;;21.33;14.45;;;;;;;15.06;61.15;95172.41;4161835;28;20520;-64
2022/10/09 07:48:40;;;;;;;21.67;14.98;;;;;;;15.11;60.86;95166.59;4163800;28;20077;-62
2022/10/09 07:50:41;;;;;;;22.40;16.48;;;;;;;15.06;61.08;95164.47;4163380;28;20062;-66
2022/10/09 07:52:43;;;;;;;21.05;14.65;;;;;;;15.00;61.75;95165.19;4158113;28;20145;-64
2022/10/09 07:54:44;;;;;;;24.48;14.82;;;;;;;15.04;62.12;95158.56;4163085;28;20049;-64
2022/10/09 07:56:46;;;;;;;22.80;16.10;;;;;;;15.36;61.62;95160.13;4163361;28;20099;-63
2022/10/09 07:58:52;;;;;;;23.27;15.73;;;;;;;15.39;61.07;95166.88;4163215;28;20084;-64
2022/10/09 08:00:54;;;;;;;23.27;14.77;;;;;;;15.59;60.82;95166.38;4161851;28;20136;-63
2022/10/09 08:02:56;;;;;;;21.60;15.50;;;;;;;15.79;60.71;95161.44;4163250;28;20462;-63
2022/10/09 08:04:57;;;;;;;22.10;15.10;;;;;;;16.07;60.13;95164.31;4162602;28;20119;-65
2022/10/09 08:06:59;;;;;;;18.90;14.05;;;;;;;16.07;59.87;95156.38;4162549;28;20136;-59
2022/10/09 08:09:03;;;;;;;22.13;13.48;;;;;;;16.10;60.01;95150.72;4163294;28;20073;-60
2022/10/09 08:11:09;;;;;;;20.65;14.23;;;;;;;16.21;59.73;95160.03;4162408;28;20080;-59
2022/10/09 08:13:11;;;;;;;20.05;13.02;;;;;;;16.28;59.77;95153.84;4163090;28;20156;-60
2022/10/09 08:15:13;;;;;;;22.48;13.13;;;;;;;16.44;59.26;95150.16;4161493;28;20034;-59
2022/10/09 08:17:15;;;;;;;20.13;13.65;;;;;;;16.61;59.11;95152.63;4162643;28;20053;-60
2022/10/09 08:19:17;;;;;;;22.70;13.32;;;;;;;16.88;58.51;95140.53;4158667;28;20107;-62
2022/10/09 08:21:18;;;;;;;17.10;11.23;;;;;;;16.94;57.91;95132.66;4161514;28;20057;-61
2022/10/09 08:23:20;;;;;;;15.15;10.63;;;;;;;16.92;58.09;95152.38;4162244;28;20073;-59
2022/10/09 08:25:21;;;;;;;11.50;7.30;;;;;;;16.72;58.07;95142.38;4162584;28;20049;-58
2022/10/09 08:27:23;;;;;;;11.32;6.72;;;;;;;16.64;58.43;95141.66;4162550;28;20049;-58
2022/10/09 08:29:25;;;;;;;9.43;6.30;;;;;;;16.58;58.09;95148.50;4162597;28;20045;-58
2022/10/09 08:31:27;;;;;;;8.30;6.13;;;;;;;16.72;58.17;95142.38;4160522;28;20111;-59
2022/10/09 08:33:29;;;;;;;9.20;5.40;;;;;;;16.86;57.68;95143.34;4155705;28;20060;-58
2022/10/09 08:35:30;;;;;;;9.38;6.50;;;;;;;16.86;57.48;95150.47;4159178;28;20072;-59
2022/10/09 08:37:35;;;;;;;8.40;5.35;;;;;;;16.94;57.00;95147.72;4162874;28;20631;-59
2022/10/09 08:39:36;;;;;;;11.57;5.32;;;;;;;17.19;56.82;95142.88;4162486;28;20048;-60
2022/10/09 08:41:50;;;;;;;17.48;8.10;;;;;;;17.19;56.32;95149.00;4162247;28;20136;-60
2022/10/09 08:44:01;;;;;;;10.60;7.32;;;;;;;17.21;56.55;95146.16;4150533;28;20049;-59
2022/10/09 08:46:06;;;;;;;10.73;6.05;;;;;;;17.13;56.21;95141.00;4159741;28;20076;-62
2022/10/09 08:48:19;;;;;;;16.10;6.60;;;;;;;16.93;56.94;95138.16;4149862;28;20049;-59
2022/10/09 08:50:34;;;;;;;10.10;6.13;;;;;;;17.16;56.46;95138.81;4150489;28;20075;-59
2022/10/09 08:53:07;;;;;;;9.60;5.90;;;;;;;17.23;56.24;95136.22;4161406;28;20341;-59
2022/10/09 08:55:16;;;;;;;11.05;5.22;;;;;;;17.30;55.97;95136.28;4151166;28;20076;-62
2022/10/09 08:57:20;;;;;;;10.07;5.50;;;;;;;17.22;56.14;95131.09;4161154;28;20576;-59
2022/10/09 08:59:22;;;;;;;10.38;5.20;;;;;;;17.25;55.81;95122.75;4144851;28;20430;-59
2022/10/09 09:01:38;;;;;;;7.85;5.50;;;;;;;17.38;55.86;95125.56;4160507;28;20059;-60
2022/10/09 09:03:43;;;;;;;9.52;4.97;;;;;;;17.34;55.45;95122.47;4160188;28;20088;-61
2022/10/09 09:05:49;;;;;;;9.43;5.35;;;;;;;17.50;55.15;95123.19;4159083;28;20083;-60
2022/10/09 09:08:15;;;;;;;5.93;4.95;;;;;;;17.54;55.49;95119.16;4160777;28;20140;-60
2022/10/09 09:10:32;;;;;;;17.98;5.82;;;;;;;17.89;55.09;95112.09;4160878;28;20069;-60
2022/10/09 09:12:47;;;;;;;10.45;4.68;;;;;;;17.99;54.05;95112.56;4161818;28;20123;-59
2022/10/09 09:15:14;;;;;;;8.45;4.80;;;;;;;18.27;53.46;95114.34;4160874;28;20127;-59
2022/10/09 09:17:21;;;;;;;10.25;4.60;;;;;;;18.56;52.70;95107.13;4162002;28;20140;-61
2022/10/09 09:19:35;;;;;;;8.50;4.80;;;;;;;18.67;51.69;95111.03;4162095;28;20087;-60
2022/10/09 09:21:40;;;;;;;8.07;4.65;;;;;;;18.75;51.98;95108.22;4162278;28;20049;-59
2022/10/09 09:23:46;;;;;;;8.43;4.78;;;;;;;18.78;52.00;95105.19;4156944;28;20049;-60
2022/10/09 09:25:48;;;;;;;6.72;4.50;;;;;;;19.04;51.84;95104.44;4149214;28;20100;-60
2022/10/09 09:27:51;;;;;;;14.60;6.18;;;;;;;19.08;51.13;95116.31;4162184;28;20099;-61
2022/10/09 09:29:58;;;;;;;10.45;5.18;;;;;;;18.73;51.50;95111.06;4160773;28;20128;-61
2022/10/09 09:32:00;;;;;;;9.18;5.05;;;;;;;18.49;52.49;95119.56;4159288;28;20120;-59
2022/10/09 09:34:09;;;;;;;8.77;5.70;;;;;;;18.48;52.54;95121.38;4158536;28;20049;-58
2022/10/09 09:36:21;;;;;;;7.00;4.47;;;;;;;18.67;52.50;95111.88;4159486;28;20073;-59